sensor_id;sensor_type;location;lat;lon;timestamp;pressure;altitude;pressure_sealevel;temperature
61977;BMP280;45905;50.570;10.428;2024-03-08T00:00:15;98103.75;;;1.96
61977;BMP280;45905;50.570;10.428;2024-03-08T00:02:46;98097.94;;;1.95
61977;BMP280;45905;50.570;10.428;2024-03-08T00:05:15;98099.88;;;1.92
61977;BMP280;45905;50.570;10.428;2024-03-08T00:07:43;98100.94;;;1.88
61977;BMP280;45905;50.570;10.428;2024-03-08T00:10:13;98096.03;;;1.87
61977;BMP280;45905;50.570;10.428;2024-03-08T00:12:44;98093.75;;;1.84
61977;BMP280;45905;50.570;10.428;2024-03-08T00:15:16;98090.47;;;1.83
61977;BMP280;45905;50.570;10.428;2024-03-08T00:17:46;98088.88;;;1.82
61977;BMP280;45905;50.570;10.428;2024-03-08T00:20:16;98103.13;;;1.80
61977;BMP280;45905;50.570;10.428;2024-03-08T00:22:45;98091.72;;;1.76
61977;BMP280;45905;50.570;10.428;2024-03-08T00:25:13;98102.63;;;1.75
61977;BMP280;45905;50.570;10.428;2024-03-08T00:27:42;98086.94;;;1.73
61977;BMP280;45905;50.570;10.428;2024-03-08T00:30:09;98091.25;;;1.71
61977;BMP280;45905;50.570;10.428;2024-03-08T00:32:38;98093.03;;;1.70
61977;BMP280;45905;50.570;10.428;2024-03-08T00:35:07;98081.84;;;1.63
61977;BMP280;45905;50.570;10.428;2024-03-08T00:37:35;98083.63;;;1.61
61977;BMP280;45905;50.570;10.428;2024-03-08T00:40:03;98079.63;;;1.58
61977;BMP280;45905;50.570;10.428;2024-03-08T00:42:32;98077.25;;;1.57
61977;BMP280;45905;50.570;10.428;2024-03-08T00:45:01;98076.53;;;1.55
61977;BMP280;45905;50.570;10.428;2024-03-08T00:47:29;98075.81;;;1.53
61977;BMP280;45905;50.570;10.428;2024-03-08T00:49:57;98069.53;;;1.48
61977;BMP280;45905;50.570;10.428;2024-03-08T00:52:25;98075.50;;;1.45
61977;BMP280;45905;50.570;10.428;2024-03-08T00:54:52;98078.00;;;1.45
61977;BMP280;45905;50.570;10.428;2024-03-08T00:57:20;98072.31;;;1.43
61977;BMP280;45905;50.570;10.428;2024-03-08T00:59:49;98071.50;;;1.43
61977;BMP280;45905;50.570;10.428;2024-03-08T01:02:16;98072.59;;;1.39
61977;BMP280;45905;50.570;10.428;2024-03-08T01:04:47;98073.59;;;1.36
61977;BMP280;45905;50.570;10.428;2024-03-08T01:07:15;98058.78;;;1.33
61977;BMP280;45905;50.570;10.428;2024-03-08T01:09:43;98058.00;;;1.33
61977;BMP280;45905;50.570;10.428;2024-03-08T01:12:10;98058.22;;;1.30
61977;BMP280;45905;50.570;10.428;2024-03-08T01:14:38;98054.19;;;1.28
61977;BMP280;45905;50.570;10.428;2024-03-08T01:17:06;98043.50;;;1.26
61977;BMP280;45905;50.570;10.428;2024-03-08T01:19:33;98055.97;;;1.26
61977;BMP280;45905;50.570;10.428;2024-03-08T01:22:01;98046.19;;;1.23
61977;BMP280;45905;50.570;10.428;2024-03-08T01:24:29;98053.00;;;1.21
61977;BMP280;45905;50.570;10.428;2024-03-08T01:26:57;98044.88;;;1.17
61977;BMP280;45905;50.570;10.428;2024-03-08T01:29:24;98044.97;;;1.16
61977;BMP280;45905;50.570;10.428;2024-03-08T01:31:52;98042.69;;;1.13
61977;BMP280;45905;50.570;10.428;2024-03-08T01:34:20;98036.28;;;1.09
61977;BMP280;45905;50.570;10.428;2024-03-08T01:36:48;98033.16;;;1.06
61977;BMP280;45905;50.570;10.428;2024-03-08T01:39:16;98027.59;;;1.02
61977;BMP280;45905;50.570;10.428;2024-03-08T01:41:44;98021.97;;;0.99
61977;BMP280;45905;50.570;10.428;2024-03-08T01:44:12;98024.47;;;0.99
61977;BMP280;45905;50.570;10.428;2024-03-08T01:46:49;98020.38;;;0.98
61977;BMP280;45905;50.570;10.428;2024-03-08T01:49:20;98012.97;;;0.96
61977;BMP280;45905;50.570;10.428;2024-03-08T01:51:49;98016.38;;;0.95
61977;BMP280;45905;50.570;10.428;2024-03-08T01:54:19;98014.25;;;0.90
61977;BMP280;45905;50.570;10.428;2024-03-08T01:56:48;98021.16;;;0.86
61977;BMP280;45905;50.570;10.428;2024-03-08T01:59:17;98015.44;;;0.84
61977;BMP280;45905;50.570;10.428;2024-03-08T02:01:44;98011.34;;;0.83
61977;BMP280;45905;50.570;10.428;2024-03-08T02:04:12;98010.56;;;0.83
61977;BMP280;45905;50.570;10.428;2024-03-08T02:06:40;98009.75;;;0.82
61977;BMP280;45905;50.570;10.428;2024-03-08T02:09:07;98001.47;;;0.82
61977;BMP280;45905;50.570;10.428;2024-03-08T02:11:35;98000.88;;;0.78
61977;BMP280;45905;50.570;10.428;2024-03-08T02:14:04;97991.88;;;0.76
61977;BMP280;45905;50.570;10.428;2024-03-08T02:16:34;97995.25;;;0.75
61977;BMP280;45905;50.570;10.428;2024-03-08T02:19:01;97991.16;;;0.74
61977;BMP280;45905;50.570;10.428;2024-03-08T02:21:30;97993.84;;;0.71
61977;BMP280;45905;50.570;10.428;2024-03-08T02:23:58;97983.19;;;0.69
61977;BMP280;45905;50.570;10.428;2024-03-08T02:26:26;97984.25;;;0.65
61977;BMP280;45905;50.570;10.428;2024-03-08T02:28:55;97985.16;;;0.64
61977;BMP280;45905;50.570;10.428;2024-03-08T02:31:23;97982.81;;;0.61
61977;BMP280;45905;50.570;10.428;2024-03-08T02:33:50;97983.03;;;0.58
61977;BMP280;45905;50.570;10.428;2024-03-08T02:36:18;97980.72;;;0.56
61977;BMP280;45905;50.570;10.428;2024-03-08T02:38:46;97980.00;;;0.54
61977;BMP280;45905;50.570;10.428;2024-03-08T02:41:14;97980.91;;;0.53
61977;BMP280;45905;50.570;10.428;2024-03-08T02:43:41;97979.50;;;0.49
61977;BMP280;45905;50.570;10.428;2024-03-08T02:46:09;97975.31;;;0.49
61977;BMP280;45905;50.570;10.428;2024-03-08T02:48:37;97978.69;;;0.48
61977;BMP280;45905;50.570;10.428;2024-03-08T02:51:07;97966.31;;;0.47
61977;BMP280;45905;50.570;10.428;2024-03-08T02:53:35;97973.88;;;0.45
61977;BMP280;45905;50.570;10.428;2024-03-08T02:56:02;97971.41;;;0.45
61977;BMP280;45905;50.570;10.428;2024-03-08T02:58:30;97969.13;;;0.42
61977;BMP280;45905;50.570;10.428;2024-03-08T03:00:58;97968.50;;;0.39
61977;BMP280;45905;50.570;10.428;2024-03-08T03:03:26;97960.38;;;0.36
61977;BMP280;45905;50.570;10.428;2024-03-08T03:05:54;97964.69;;;0.34
61977;BMP280;45905;50.570;10.428;2024-03-08T03:08:23;97967.25;;;0.32
61977;BMP280;45905;50.570;10.428;2024-03-08T03:10:51;97966.53;;;0.30
61977;BMP280;45905;50.570;10.428;2024-03-08T03:13:18;97964.06;;;0.30
61977;BMP280;45905;50.570;10.428;2024-03-08T03:15:46;97964.16;;;0.29
61977;BMP280;45905;50.570;10.428;2024-03-08T03:18:14;97956.06;;;0.25
61977;BMP280;45905;50.570;10.428;2024-03-08T03:20:43;97961.22;;;0.22
61977;BMP280;45905;50.570;10.428;2024-03-08T03:23:11;97949.66;;;0.21
61977;BMP280;45905;50.570;10.428;2024-03-08T03:25:43;97957.31;;;0.18
61977;BMP280;45905;50.570;10.428;2024-03-08T03:28:12;97956.63;;;0.17
61977;BMP280;45905;50.570;10.428;2024-03-08T03:30:45;97951.81;;;0.14
61977;BMP280;45905;50.570;10.428;2024-03-08T03:33:14;97946.91;;;0.12
61977;BMP280;45905;50.570;10.428;2024-03-08T03:35:43;97948.63;;;0.12
61977;BMP280;45905;50.570;10.428;2024-03-08T03:38:11;97945.41;;;0.10
61977;BMP280;45905;50.570;10.428;2024-03-08T03:40:41;97945.41;;;0.10
61977;BMP280;45905;50.570;10.428;2024-03-08T03:43:09;97947.22;;;0.08
61977;BMP280;45905;50.570;10.428;2024-03-08T03:45:38;97939.81;;;0.06
61977;BMP280;45905;50.570;10.428;2024-03-08T03:48:07;97941.50;;;0.06
61977;BMP280;45905;50.570;10.428;2024-03-08T03:50:38;97934.22;;;0.03
61977;BMP280;45905;50.570;10.428;2024-03-08T03:53:08;97938.41;;;0.02
61977;BMP280;45905;50.570;10.428;2024-03-08T03:55:37;97937.59;;;0.02
61977;BMP280;45905;50.570;10.428;2024-03-08T03:58:08;97933.63;;;-0.00
61977;BMP280;45905;50.570;10.428;2024-03-08T04:00:38;97927.13;;;-0.03
61977;BMP280;45905;50.570;10.428;2024-03-08T04:03:08;97930.50;;;-0.04
61977;BMP280;45905;50.570;10.428;2024-03-08T04:05:38;97930.59;;;-0.05
61977;BMP280;45905;50.570;10.428;2024-03-08T04:08:06;97926.56;;;-0.08
61977;BMP280;45905;50.570;10.428;2024-03-08T04:10:37;97920.91;;;-0.10
61977;BMP280;45905;50.570;10.428;2024-03-08T04:13:05;97931.75;;;-0.11
61977;BMP280;45905;50.570;10.428;2024-03-08T04:15:34;97921.09;;;-0.13
61977;BMP280;45905;50.570;10.428;2024-03-08T04:18:04;97929.44;;;-0.14
61977;BMP280;45905;50.570;10.428;2024-03-08T04:20:31;97927.94;;;-0.16
61977;BMP280;45905;50.570;10.428;2024-03-08T04:22:59;97928.13;;;-0.19
61977;BMP280;45905;50.570;10.428;2024-03-08T04:25:28;97933.09;;;-0.19
61977;BMP280;45905;50.570;10.428;2024-03-08T04:27:56;97928.28;;;-0.22
61977;BMP280;45905;50.570;10.428;2024-03-08T04:30:24;97925.88;;;-0.23
61977;BMP280;45905;50.570;10.428;2024-03-08T04:32:54;97920.19;;;-0.25
61977;BMP280;45905;50.570;10.428;2024-03-08T04:35:22;97924.50;;;-0.27
61977;BMP280;45905;50.570;10.428;2024-03-08T04:37:50;97917.91;;;-0.28
61977;BMP280;45905;50.570;10.428;2024-03-08T04:40:18;97910.53;;;-0.30
61977;BMP280;45905;50.570;10.428;2024-03-08T04:42:51;97919.69;;;-0.30
61977;BMP280;45905;50.570;10.428;2024-03-08T04:45:21;97906.53;;;-0.32
61977;BMP280;45905;50.570;10.428;2024-03-08T04:47:49;97915.69;;;-0.33
61977;BMP280;45905;50.570;10.428;2024-03-08T04:50:17;97905.72;;;-0.33
61977;BMP280;45905;50.570;10.428;2024-03-08T04:52:45;97900.75;;;-0.33
61977;BMP280;45905;50.570;10.428;2024-03-08T04:55:16;97902.50;;;-0.35
61977;BMP280;45905;50.570;10.428;2024-03-08T04:57:44;97909.22;;;-0.35
61977;BMP280;45905;50.570;10.428;2024-03-08T05:00:15;97901.91;;;-0.38
61977;BMP280;45905;50.570;10.428;2024-03-08T05:02:43;97898.72;;;-0.40
61977;BMP280;45905;50.570;10.428;2024-03-08T05:05:11;97902.09;;;-0.41
61977;BMP280;45905;50.570;10.428;2024-03-08T05:07:43;97895.50;;;-0.42
61977;BMP280;45905;50.570;10.428;2024-03-08T05:10:13;97912.13;;;-0.42
61977;BMP280;45905;50.570;10.428;2024-03-08T05:12:46;97894.91;;;-0.45
61977;BMP280;45905;50.570;10.428;2024-03-08T05:15:13;97900.13;;;-0.50
61977;BMP280;45905;50.570;10.428;2024-03-08T05:17:41;97901.91;;;-0.52
61977;BMP280;45905;50.570;10.428;2024-03-08T05:20:09;97902.97;;;-0.56
61977;BMP280;45905;50.570;10.428;2024-03-08T05:22:40;97901.38;;;-0.57
61977;BMP280;45905;50.570;10.428;2024-03-08T05:25:08;97896.56;;;-0.59
61977;BMP280;45905;50.570;10.428;2024-03-08T05:27:36;97905.72;;;-0.60
61977;BMP280;45905;50.570;10.428;2024-03-08T05:30:04;97903.22;;;-0.60
61977;BMP280;45905;50.570;10.428;2024-03-08T05:32:32;97901.75;;;-0.62
61977;BMP280;45905;50.570;10.428;2024-03-08T05:34:59;97907.53;;;-0.62
61977;BMP280;45905;50.570;10.428;2024-03-08T05:37:27;97900.13;;;-0.63
61977;BMP280;45905;50.570;10.428;2024-03-08T05:39:54;97896.06;;;-0.64
61977;BMP280;45905;50.570;10.428;2024-03-08T05:42:24;97895.34;;;-0.66
61977;BMP280;45905;50.570;10.428;2024-03-08T05:44:53;97893.66;;;-0.66
61977;BMP280;45905;50.570;10.428;2024-03-08T05:47:24;97893.72;;;-0.67
61977;BMP280;45905;50.570;10.428;2024-03-08T05:49:57;97897.09;;;-0.68
61977;BMP280;45905;50.570;10.428;2024-03-08T05:52:25;97901.28;;;-0.69
61977;BMP280;45905;50.570;10.428;2024-03-08T05:54:57;97903.88;;;-0.70
61977;BMP280;45905;50.570;10.428;2024-03-08T05:57:25;97903.88;;;-0.70
61977;BMP280;45905;50.570;10.428;2024-03-08T05:59:58;97904.75;;;-0.71
61977;BMP280;45905;50.570;10.428;2024-03-08T06:02:38;97901.47;;;-0.72
61977;BMP280;45905;50.570;10.428;2024-03-08T06:05:12;97907.41;;;-0.74
61977;BMP280;45905;50.570;10.428;2024-03-08T06:07:40;97898.34;;;-0.75
61977;BMP280;45905;50.570;10.428;2024-03-08T06:10:12;97902.59;;;-0.77
61977;BMP280;45905;50.570;10.428;2024-03-08T06:12:46;97904.41;;;-0.79
61977;BMP280;45905;50.570;10.428;2024-03-08T06:15:14;97906.16;;;-0.81
61977;BMP280;45905;50.570;10.428;2024-03-08T06:17:44;97911.16;;;-0.81
61977;BMP280;45905;50.570;10.428;2024-03-08T06:20:14;97908.56;;;-0.79
61977;BMP280;45905;50.570;10.428;2024-03-08T06:22:44;97909.38;;;-0.79
61977;BMP280;45905;50.570;10.428;2024-03-08T06:25:17;97902.00;;;-0.80
61977;BMP280;45905;50.570;10.428;2024-03-08T06:27:46;97908.00;;;-0.84
61977;BMP280;45905;50.570;10.428;2024-03-08T06:30:15;97907.22;;;-0.85
61977;BMP280;45905;50.570;10.428;2024-03-08T06:33:08;97901.53;;;-0.87
61977;BMP280;45905;50.570;10.428;2024-03-08T06:35:38;97903.13;;;-0.86
61977;BMP280;45905;50.570;10.428;2024-03-08T06:38:06;97898.16;;;-0.86
61977;BMP280;45905;50.570;10.428;2024-03-08T06:40:35;97899.03;;;-0.87
61977;BMP280;45905;50.570;10.428;2024-03-08T06:43:31;97899.94;;;-0.88
61977;BMP280;45905;50.570;10.428;2024-03-08T06:46:05;97905.00;;;-0.89
61977;BMP280;45905;50.570;10.428;2024-03-08T06:48:36;97900.84;;;-0.89
61977;BMP280;45905;50.570;10.428;2024-03-08T06:51:29;97903.31;;;-0.89
61977;BMP280;45905;50.570;10.428;2024-03-08T06:53:57;97900.72;;;-0.87
61977;BMP280;45905;50.570;10.428;2024-03-08T06:56:26;97894.06;;;-0.87
61977;BMP280;45905;50.570;10.428;2024-03-08T06:58:56;97891.41;;;-0.84
61977;BMP280;45905;50.570;10.428;2024-03-08T07:01:25;97901.19;;;-0.81
61977;BMP280;45905;50.570;10.428;2024-03-08T07:03:53;97896.22;;;-0.81
61977;BMP280;45905;50.570;10.428;2024-03-08T07:06:21;97891.97;;;-0.79
61977;BMP280;45905;50.570;10.428;2024-03-08T07:08:50;97888.56;;;-0.78
61977;BMP280;45905;50.570;10.428;2024-03-08T07:11:42;97894.91;;;-0.73
61977;BMP280;45905;50.570;10.428;2024-03-08T07:14:12;97900.38;;;-0.68
61977;BMP280;45905;50.570;10.428;2024-03-08T07:16:47;97898.69;;;-0.67
61977;BMP280;45905;50.570;10.428;2024-03-08T07:19:17;97899.50;;;-0.67
61977;BMP280;45905;50.570;10.428;2024-03-08T07:21:47;97890.34;;;-0.66
61977;BMP280;45905;50.570;10.428;2024-03-08T07:24:14;97879.78;;;-0.70
61977;BMP280;45905;50.570;10.428;2024-03-08T07:26:48;97884.50;;;-0.65
61977;BMP280;45905;50.570;10.428;2024-03-08T07:29:17;97888.50;;;-0.63
61977;BMP280;45905;50.570;10.428;2024-03-08T07:31:45;97884.84;;;-0.57
61977;BMP280;45905;50.570;10.428;2024-03-08T07:34:24;97872.41;;;-0.57
61977;BMP280;45905;50.570;10.428;2024-03-08T07:36:52;97872.06;;;-0.65
61977;BMP280;45905;50.570;10.428;2024-03-08T07:39:20;97857.94;;;-0.65
61977;BMP280;45905;50.570;10.428;2024-03-08T07:41:53;97857.78;;;-0.62
61977;BMP280;45905;50.570;10.428;2024-03-08T07:44:45;97861.06;;;-0.61
61977;BMP280;45905;50.570;10.428;2024-03-08T07:47:16;97855.63;;;-0.54
61977;BMP280;45905;50.570;10.428;2024-03-08T07:49:53;97847.88;;;-0.50
61977;BMP280;45905;50.570;10.428;2024-03-08T07:52:21;97851.00;;;-0.46
61977;BMP280;45905;50.570;10.428;2024-03-08T07:54:49;97837.59;;;-0.44
61977;BMP280;45905;50.570;10.428;2024-03-08T07:57:18;97838.19;;;-0.40
61977;BMP280;45905;50.570;10.428;2024-03-08T07:59:46;97830.72;;;-0.40
61977;BMP280;45905;50.570;10.428;2024-03-08T08:02:13;97825.56;;;-0.38
61977;BMP280;45905;50.570;10.428;2024-03-08T08:04:42;97833.47;;;-0.31
61977;BMP280;45905;50.570;10.428;2024-03-08T08:07:13;97828.22;;;-0.27
61977;BMP280;45905;50.570;10.428;2024-03-08T08:09:41;97819.41;;;-0.19
61977;BMP280;45905;50.570;10.428;2024-03-08T08:12:09;97822.22;;;-0.11
61977;BMP280;45905;50.570;10.428;2024-03-08T08:14:40;97815.06;;;-0.03
61977;BMP280;45905;50.570;10.428;2024-03-08T08:17:08;97809.94;;;0.12
61977;BMP280;45905;50.570;10.428;2024-03-08T08:19:36;97807.41;;;0.38
61977;BMP280;45905;50.570;10.428;2024-03-08T08:22:03;97808.47;;;0.60
61977;BMP280;45905;50.570;10.428;2024-03-08T08:24:31;97795.63;;;0.78
61977;BMP280;45905;50.570;10.428;2024-03-08T08:27:00;97789.44;;;0.95
61977;BMP280;45905;50.570;10.428;2024-03-08T08:29:29;97796.72;;;1.11
61977;BMP280;45905;50.570;10.428;2024-03-08T08:32:00;97787.91;;;1.30
61977;BMP280;45905;50.570;10.428;2024-03-08T08:34:31;97787.94;;;1.52
61977;BMP280;45905;50.570;10.428;2024-03-08T08:37:03;97785.22;;;1.68
61977;BMP280;45905;50.570;10.428;2024-03-08T08:39:31;97787.78;;;1.78
61977;BMP280;45905;50.570;10.428;2024-03-08T08:41:59;97785.44;;;1.88
61977;BMP280;45905;50.570;10.428;2024-03-08T08:44:28;97780.50;;;1.98
61977;BMP280;45905;50.570;10.428;2024-03-08T08:46:56;97777.72;;;2.13
61977;BMP280;45905;50.570;10.428;2024-03-08T08:49:35;97776.19;;;2.23
61977;BMP280;45905;50.570;10.428;2024-03-08T08:52:03;97776.22;;;2.34
61977;BMP280;45905;50.570;10.428;2024-03-08T08:54:43;97766.38;;;2.43
61977;BMP280;45905;50.570;10.428;2024-03-08T08:57:16;97776.94;;;2.47
61977;BMP280;45905;50.570;10.428;2024-03-08T08:59:44;97772.53;;;2.50
61977;BMP280;45905;50.570;10.428;2024-03-08T09:02:13;97764.81;;;2.53
61977;BMP280;45905;50.570;10.428;2024-03-08T09:04:46;97768.66;;;2.57
61977;BMP280;45905;50.570;10.428;2024-03-08T09:07:15;97763.81;;;2.66
61977;BMP280;45905;50.570;10.428;2024-03-08T09:09:44;97761.53;;;2.74
61977;BMP280;45905;50.570;10.428;2024-03-08T09:12:12;97750.97;;;2.81
61977;BMP280;45905;50.570;10.428;2024-03-08T09:14:41;97744.50;;;2.89
61977;BMP280;45905;50.570;10.428;2024-03-08T09:17:09;97746.22;;;3.00
61977;BMP280;45905;50.570;10.428;2024-03-08T09:19:37;97736.09;;;3.12
61977;BMP280;45905;50.570;10.428;2024-03-08T09:22:05;97725.41;;;3.21
61977;BMP280;45905;50.570;10.428;2024-03-08T09:24:32;97722.31;;;3.28
61977;BMP280;45905;50.570;10.428;2024-03-08T09:27:00;97711.84;;;3.34
61977;BMP280;45905;50.570;10.428;2024-03-08T09:29:28;97717.06;;;3.42
61977;BMP280;45905;50.570;10.428;2024-03-08T09:31:56;97706.69;;;3.46
61977;BMP280;45905;50.570;10.428;2024-03-08T09:34:24;97706.78;;;3.55
61977;BMP280;45905;50.570;10.428;2024-03-08T09:37:03;97696.41;;;3.60
61977;BMP280;45905;50.570;10.428;2024-03-08T09:39:31;97693.34;;;3.67
61977;BMP280;45905;50.570;10.428;2024-03-08T09:42:02;97692.75;;;3.74
61977;BMP280;45905;50.570;10.428;2024-03-08T09:44:30;97687.00;;;3.83
61977;BMP280;45905;50.570;10.428;2024-03-08T09:47:01;97681.41;;;3.90
61977;BMP280;45905;50.570;10.428;2024-03-08T09:49:29;97675.91;;;3.96
61977;BMP280;45905;50.570;10.428;2024-03-08T09:51:57;97672.44;;;4.08
61977;BMP280;45905;50.570;10.428;2024-03-08T09:54:26;97665.66;;;4.19
61977;BMP280;45905;50.570;10.428;2024-03-08T09:56:54;97667.50;;;4.37
61977;BMP280;45905;50.570;10.428;2024-03-08T09:59:22;97647.34;;;4.48
61977;BMP280;45905;50.570;10.428;2024-03-08T10:01:55;97652.94;;;4.60
61977;BMP280;45905;50.570;10.428;2024-03-08T10:04:28;97653.69;;;4.72
61977;BMP280;45905;50.570;10.428;2024-03-08T10:06:59;97652.78;;;4.82
61977;BMP280;45905;50.570;10.428;2024-03-08T10:09:27;97648.84;;;4.89
61977;BMP280;45905;50.570;10.428;2024-03-08T10:11:58;97643.59;;;5.01
61977;BMP280;45905;50.570;10.428;2024-03-08T10:14:27;97643.50;;;5.12
61977;BMP280;45905;50.570;10.428;2024-03-08T10:16:55;97629.94;;;5.23
61977;BMP280;45905;50.570;10.428;2024-03-08T10:19:28;97615.41;;;5.36
61977;BMP280;45905;50.570;10.428;2024-03-08T10:21:58;97624.53;;;5.46
61977;BMP280;45905;50.570;10.428;2024-03-08T10:24:27;97616.63;;;5.51
61977;BMP280;45905;50.570;10.428;2024-03-08T10:27:01;97618.34;;;5.59
61977;BMP280;45905;50.570;10.428;2024-03-08T10:29:36;97605.66;;;5.70
61977;BMP280;45905;50.570;10.428;2024-03-08T10:32:07;97605.16;;;5.76
61977;BMP280;45905;50.570;10.428;2024-03-08T10:34:35;97604.59;;;5.82
61977;BMP280;45905;50.570;10.428;2024-03-08T10:37:13;97603.13;;;5.89
61977;BMP280;45905;50.570;10.428;2024-03-08T10:40:05;97600.47;;;5.99
61977;BMP280;45905;50.570;10.428;2024-03-08T10:42:55;97597.94;;;6.09
61977;BMP280;45905;50.570;10.428;2024-03-08T10:45:36;97595.66;;;6.24
61977;BMP280;45905;50.570;10.428;2024-03-08T10:51:02;97605.81;;;6.41
61977;BMP280;45905;50.570;10.428;2024-03-08T10:53:30;97595.06;;;6.48
61977;BMP280;45905;50.570;10.428;2024-03-08T10:55:59;97596.25;;;6.54
61977;BMP280;45905;50.570;10.428;2024-03-08T10:58:28;97595.13;;;6.66
61977;BMP280;45905;50.570;10.428;2024-03-08T11:00:57;97588.19;;;6.77
61977;BMP280;45905;50.570;10.428;2024-03-08T11:06:30;97584.13;;;6.93
61977;BMP280;45905;50.570;10.428;2024-03-08T11:08:58;97581.69;;;7.01
61977;BMP280;45905;50.570;10.428;2024-03-08T11:11:33;97575.53;;;7.12
61977;BMP280;45905;50.570;10.428;2024-03-08T11:14:04;97575.22;;;7.24
61977;BMP280;45905;50.570;10.428;2024-03-08T11:16:56;97574.47;;;7.32
61977;BMP280;45905;50.570;10.428;2024-03-08T11:19:26;97576.72;;;7.35
61977;BMP280;45905;50.570;10.428;2024-03-08T11:22:05;97556.25;;;7.38
61977;BMP280;45905;50.570;10.428;2024-03-08T11:24:39;97559.16;;;7.43
61977;BMP280;45905;50.570;10.428;2024-03-08T11:27:16;97547.78;;;7.56
61977;BMP280;45905;50.570;10.428;2024-03-08T11:30:03;97537.97;;;7.70
61977;BMP280;45905;50.570;10.428;2024-03-08T11:32:45;97537.72;;;7.80
61977;BMP280;45905;50.570;10.428;2024-03-08T11:35:21;97536.69;;;7.91
61977;BMP280;45905;50.570;10.428;2024-03-08T11:37:51;97532.53;;;7.99
61977;BMP280;45905;50.570;10.428;2024-03-08T11:40:24;97523.78;;;8.11
61977;BMP280;45905;50.570;10.428;2024-03-08T11:42:52;97534.25;;;8.23
61977;BMP280;45905;50.570;10.428;2024-03-08T11:45:21;97522.47;;;8.32
61977;BMP280;45905;50.570;10.428;2024-03-08T11:47:49;97515.28;;;8.44
61977;BMP280;45905;50.570;10.428;2024-03-08T11:50:19;97508.69;;;8.59
61977;BMP280;45905;50.570;10.428;2024-03-08T11:52:59;97500.06;;;8.69
61977;BMP280;45905;50.570;10.428;2024-03-08T11:55:27;97503.75;;;8.82
61977;BMP280;45905;50.570;10.428;2024-03-08T11:58:05;97495.09;;;8.93
61977;BMP280;45905;50.570;10.428;2024-03-08T12:00:39;97499.84;;;9.03
61977;BMP280;45905;50.570;10.428;2024-03-08T12:03:08;97495.28;;;9.14
61977;BMP280;45905;50.570;10.428;2024-03-08T12:05:39;97490.25;;;9.22
61977;BMP280;45905;50.570;10.428;2024-03-08T12:08:08;97485.97;;;9.31
61977;BMP280;45905;50.570;10.428;2024-03-08T12:10:40;97477.78;;;9.44
61977;BMP280;45905;50.570;10.428;2024-03-08T12:13:08;97467.97;;;9.49
61977;BMP280;45905;50.570;10.428;2024-03-08T12:15:41;97468.13;;;9.55
61977;BMP280;45905;50.570;10.428;2024-03-08T12:18:08;97461.97;;;9.66
61977;BMP280;45905;50.570;10.428;2024-03-08T12:20:38;97459.09;;;9.76
61977;BMP280;45905;50.570;10.428;2024-03-08T12:23:14;97455.00;;;9.83
61977;BMP280;45905;50.570;10.428;2024-03-08T12:25:44;97458.47;;;9.98
61977;BMP280;45905;50.570;10.428;2024-03-08T12:28:13;97450.19;;;10.11
61977;BMP280;45905;50.570;10.428;2024-03-08T12:30:51;97445.75;;;10.21
61977;BMP280;45905;50.570;10.428;2024-03-08T12:33:21;97443.31;;;10.35
61977;BMP280;45905;50.570;10.428;2024-03-08T12:35:54;97437.38;;;10.50
61977;BMP280;45905;50.570;10.428;2024-03-08T12:38:28;97439.69;;;10.60
61977;BMP280;45905;50.570;10.428;2024-03-08T12:40:59;97424.31;;;10.69
61977;BMP280;45905;50.570;10.428;2024-03-08T12:43:29;97421.56;;;10.78
61977;BMP280;45905;50.570;10.428;2024-03-08T12:46:02;97423.88;;;10.87
61977;BMP280;45905;50.570;10.428;2024-03-08T12:48:37;97413.41;;;10.90
61977;BMP280;45905;50.570;10.428;2024-03-08T12:51:08;97419.38;;;10.97
61977;BMP280;45905;50.570;10.428;2024-03-08T12:53:36;97411.09;;;11.03
61977;BMP280;45905;50.570;10.428;2024-03-08T12:56:08;97402.47;;;11.12
61977;BMP280;45905;50.570;10.428;2024-03-08T12:58:36;97405.13;;;11.18
61977;BMP280;45905;50.570;10.428;2024-03-08T13:01:06;97414.25;;;11.27
61977;BMP280;45905;50.570;10.428;2024-03-08T13:03:35;97399.16;;;11.33
61977;BMP280;45905;50.570;10.428;2024-03-08T13:06:06;97404.69;;;11.37
61977;BMP280;45905;50.570;10.428;2024-03-08T13:08:40;97401.28;;;11.44
61977;BMP280;45905;50.570;10.428;2024-03-08T13:11:08;97383.81;;;11.49
61977;BMP280;45905;50.570;10.428;2024-03-08T13:13:40;97379.44;;;11.57
61977;BMP280;45905;50.570;10.428;2024-03-08T13:16:09;97378.56;;;11.64
61977;BMP280;45905;50.570;10.428;2024-03-08T13:18:37;97375.59;;;11.75
61977;BMP280;45905;50.570;10.428;2024-03-08T13:21:05;97369.16;;;11.87
61977;BMP280;45905;50.570;10.428;2024-03-08T13:23:36;97366.50;;;11.95
61977;BMP280;45905;50.570;10.428;2024-03-08T13:26:11;97360.72;;;12.01
61977;BMP280;45905;50.570;10.428;2024-03-08T13:28:46;97371.41;;;12.10
61977;BMP280;45905;50.570;10.428;2024-03-08T13:31:14;97361.94;;;12.19
61977;BMP280;45905;50.570;10.428;2024-03-08T13:33:43;97351.50;;;12.28
61977;BMP280;45905;50.570;10.428;2024-03-08T13:36:15;97351.38;;;12.36
61977;BMP280;45905;50.570;10.428;2024-03-08T13:38:46;97351.53;;;12.48
61977;BMP280;45905;50.570;10.428;2024-03-08T13:41:16;97342.84;;;12.57
61977;BMP280;45905;50.570;10.428;2024-03-08T13:43:47;97340.03;;;12.66
61977;BMP280;45905;50.570;10.428;2024-03-08T13:46:19;97327.41;;;12.73
61977;BMP280;45905;50.570;10.428;2024-03-08T13:48:47;97332.59;;;12.85
61977;BMP280;45905;50.570;10.428;2024-03-08T13:51:28;97321.13;;;12.96
61977;BMP280;45905;50.570;10.428;2024-03-08T13:53:56;97323.81;;;13.08
61977;BMP280;45905;50.570;10.428;2024-03-08T13:56:24;97326.81;;;13.18
61977;BMP280;45905;50.570;10.428;2024-03-08T13:58:51;97312.16;;;13.20
61977;BMP280;45905;50.570;10.428;2024-03-08T14:01:19;97311.00;;;13.22
61977;BMP280;45905;50.570;10.428;2024-03-08T14:03:48;97302.63;;;13.28
61977;BMP280;45905;50.570;10.428;2024-03-08T14:06:18;97308.97;;;13.38
61977;BMP280;45905;50.570;10.428;2024-03-08T14:08:49;97302.56;;;13.49
61977;BMP280;45905;50.570;10.428;2024-03-08T14:11:17;97310.84;;;13.57
61977;BMP280;45905;50.570;10.428;2024-03-08T14:13:47;97294.41;;;13.59
61977;BMP280;45905;50.570;10.428;2024-03-08T14:16:16;97296.13;;;13.53
61977;BMP280;45905;50.570;10.428;2024-03-08T14:18:44;97290.25;;;13.52
61977;BMP280;45905;50.570;10.428;2024-03-08T14:21:13;97294.19;;;13.54
61977;BMP280;45905;50.570;10.428;2024-03-08T14:23:43;97279.38;;;13.64
61977;BMP280;45905;50.570;10.428;2024-03-08T14:26:11;97276.69;;;13.72